Time;durP1;ratioP1;P1;durP2;ratioP2;P2;SDS_P1;SDS_P2;PMS_P1;PMS_P2;Temp;Humidity;BMP_temperature;BMP_pressure;BME280_temperature;BME280_humidity;BME280_pressure;Samples;Min_cycle;Max_cycle;Signal;HPM_P1;HPM_P2
2021/06/15 00:00:48;;;;;;;4.35;2.40;;;;;;;20.71;45.35;102035.25;4224205;28;20039;-70
2021/06/15 00:02:49;;;;;;;5.20;2.17;;;;;;;20.92;45.08;102029.91;4208777;28;20048;-68
2021/06/15 00:04:49;;;;;;;5.80;2.22;;;;;;;20.88;45.11;102028.75;4208389;28;20119;-75
2021/06/15 00:06:50;;;;;;;5.57;1.70;;;;;;;20.82;45.27;102033.41;4203827;28;20035;-74
2021/06/15 00:08:50;;;;;;;3.28;1.75;;;;;;;21.13;44.60;102026.19;4205207;28;20047;-73
2021/06/15 00:10:51;;;;;;;3.75;1.95;;;;;;;21.11;44.84;102025.59;4209603;28;20055;-75
2021/06/15 00:12:54;;;;;;;4.30;1.85;;;;;;;21.10;44.48;102023.09;4209274;28;20036;-73
2021/06/15 00:14:54;;;;;;;4.65;2.25;;;;;;;20.97;44.69;102033.56;4208921;28;20028;-68
2021/06/15 00:16:55;;;;;;;9.65;1.88;;;;;;;20.96;45.10;102031.91;4206646;28;20081;-68
2021/06/15 00:18:55;;;;;;;5.30;1.77;;;;;;;20.90;45.11;102023.75;4208526;28;20028;-67
2021/06/15 00:20:55;;;;;;;3.50;1.70;;;;;;;21.30;44.09;102023.31;4207963;28;20609;-67
2021/06/15 00:22:56;;;;;;;4.68;2.15;;;;;;;21.08;44.63;102034.50;4207193;28;20035;-67
2021/06/15 00:24:56;;;;;;;4.70;1.70;;;;;;;20.81;45.27;102032.59;4208852;28;20020;-68
2021/06/15 00:26:57;;;;;;;4.32;2.22;;;;;;;21.09;44.47;102033.41;4208425;28;20039;-68
2021/06/15 00:28:57;;;;;;;5.85;2.15;;;;;;;21.16;44.52;102033.16;4206819;28;20032;-67
2021/06/15 00:30:58;;;;;;;4.57;1.73;;;;;;;21.25;44.24;102034.34;4209557;28;20489;-68
2021/06/15 00:32:58;;;;;;;4.40;2.08;;;;;;;21.04;44.77;102038.94;4207349;28;20048;-67
2021/06/15 00:34:58;;;;;;;5.70;2.33;;;;;;;20.93;44.94;102031.56;4210229;28;20035;-67
2021/06/15 00:36:59;;;;;;;7.05;2.38;;;;;;;20.86;44.93;102034.56;4204015;28;20032;-67
2021/06/15 00:39:00;;;;;;;5.53;2.28;;;;;;;20.62;45.29;102034.91;4207583;28;20098;-67
2021/06/15 00:41:01;;;;;;;4.95;1.90;;;;;;;20.86;44.86;102045.72;4200682;28;20040;-68
2021/06/15 00:43:01;;;;;;;4.78;1.95;;;;;;;20.78;45.10;102048.97;4208342;28;20036;-66
2021/06/15 00:45:05;;;;;;;6.20;2.25;;;;;;;20.58;45.42;102038.47;4208681;28;20474;-67
2021/06/15 00:47:06;;;;;;;7.35;2.50;;;;;;;20.79;45.09;102050.63;4208458;28;20021;-67
2021/06/15 00:49:07;;;;;;;3.60;1.92;;;;;;;20.55;45.18;102059.28;4207118;28;20374;-68
2021/06/15 00:51:08;;;;;;;6.32;1.92;;;;;;;20.26;45.89;102061.44;4207766;28;20089;-67
2021/06/15 00:53:09;;;;;;;12.18;1.70;;;;;;;20.35;45.49;102070.16;4206802;28;20120;-67
2021/06/15 00:55:10;;;;;;;6.40;1.83;;;;;;;20.34;45.38;102060.97;4207993;28;20437;-67
2021/06/15 00:57:18;;;;;;;6.55;2.00;;;;;;;20.68;44.85;102080.31;4208210;28;20580;-66
2021/06/15 00:59:19;;;;;;;4.22;1.52;;;;;;;20.61;44.81;102080.50;4207469;28;20028;-65
2021/06/15 01:01:19;;;;;;;6.35;2.13;;;;;;;20.42;44.98;102080.00;4207318;28;20036;-65
2021/06/15 01:03:23;;;;;;;3.25;1.73;;;;;;;20.34;45.14;102079.59;4207027;28;20043;-66
2021/06/15 01:05:23;;;;;;;4.15;1.95;;;;;;;20.47;45.03;102087.56;4208922;28;20115;-66
2021/06/15 01:07:29;;;;;;;4.10;1.63;;;;;;;20.29;44.86;102097.06;4206337;28;20052;-66
2021/06/15 01:09:33;;;;;;;2.85;1.58;;;;;;;20.55;44.32;102101.00;4208146;28;20066;-66
2021/06/15 01:11:39;;;;;;;4.20;1.65;;;;;;;20.12;45.15;102094.34;4207107;28;20408;-67
2021/06/15 01:14:06;;;;;;;4.85;1.75;;;;;;;20.15;45.00;102093.00;4207153;28;20042;-66
2021/06/15 01:16:26;;;;;;;4.22;1.65;;;;;;;20.02;45.31;102095.03;4205959;28;20028;-70
2021/06/15 01:18:29;;;;;;;4.85;1.27;;;;;;;19.88;45.52;102099.25;4209550;28;20028;-67
2021/06/15 01:20:44;;;;;;;6.40;1.35;;;;;;;19.80;45.70;102106.06;4207744;28;20046;-69
2021/06/15 01:22:44;;;;;;;5.07;1.38;;;;;;;19.88;45.46;102094.56;4207242;28;20027;-69
2021/06/15 01:25:05;;;;;;;5.32;1.50;;;;;;;20.17;44.74;102094.38;4208445;28;20036;-68
2021/06/15 01:27:39;;;;;;;4.57;1.52;;;;;;;19.83;45.55;102093.63;4201890;28;20475;-68
2021/06/15 01:29:44;;;;;;;4.68;1.60;;;;;;;19.86;45.24;102087.56;4207747;28;20319;-71
2021/06/15 01:31:48;;;;;;;5.00;1.55;;;;;;;19.79;45.51;102087.72;4207891;28;20546;-69
2021/06/15 01:33:58;;;;;;;5.40;1.33;;;;;;;19.48;46.40;102086.41;4211528;28;20024;-71
2021/06/15 01:36:00;;;;;;;5.72;1.75;;;;;;;19.41;46.27;102090.19;4206755;28;20044;-68
2021/06/15 01:38:07;;;;;;;4.35;1.40;;;;;;;19.38;46.41;102082.34;4206152;28;20032;-71
2021/06/15 01:40:13;;;;;;;4.18;1.20;;;;;;;19.43;46.12;102089.94;4206352;28;20048;-69
2021/06/15 01:42:26;;;;;;;4.90;1.50;;;;;;;19.57;45.78;102088.50;4207332;28;20726;-69
2021/06/15 01:44:30;;;;;;;5.13;1.50;;;;;;;19.76;45.14;102089.06;4207457;28;20042;-70
2021/06/15 01:46:42;;;;;;;4.75;1.67;;;;;;;19.42;45.85;102085.50;4206587;28;20020;-69
2021/06/15 01:48:49;;;;;;;4.20;1.83;;;;;;;19.44;45.57;102086.06;4203623;28;20050;-68
2021/06/15 01:50:50;;;;;;;3.65;1.33;;;;;;;19.51;45.37;102085.88;4208557;28;20040;-69
2021/06/15 01:52:52;;;;;;;4.03;1.63;;;;;;;19.65;45.05;102087.25;4222158;28;20055;-69
2021/06/15 01:54:55;;;;;;;5.32;1.55;;;;;;;19.64;44.94;102087.50;4208491;28;20166;-68
2021/06/15 01:56:56;;;;;;;5.63;1.98;;;;;;;19.65;44.95;102076.13;4205199;28;20046;-65
2021/06/15 01:58:59;;;;;;;3.63;1.08;;;;;;;19.89;44.34;102076.78;4208047;28;20144;-63
2021/06/15 02:01:00;;;;;;;3.22;1.00;;;;;;;19.69;44.79;102079.22;4204871;28;20032;-66
2021/06/15 02:03:03;;;;;;;3.53;1.05;;;;;;;19.63;44.75;102081.09;4207517;28;20048;-69
2021/06/15 02:05:07;;;;;;;3.85;0.95;;;;;;;19.66;44.60;102082.53;4210362;28;20040;-67
2021/06/15 02:07:14;;;;;;;2.78;1.00;;;;;;;19.79;44.47;102076.63;4209763;28;20040;-69
2021/06/15 02:09:16;;;;;;;4.93;1.13;;;;;;;20.03;43.93;102065.31;4211000;28;20020;-65
2021/06/15 02:11:18;;;;;;;3.88;1.15;;;;;;;20.04;43.72;102065.03;4208373;28;20035;-65
2021/06/15 02:13:19;;;;;;;3.60;1.30;;;;;;;19.83;43.93;102052.75;4210457;28;20024;-67
2021/06/15 02:15:23;;;;;;;3.70;1.27;;;;;;;20.20;43.34;102038.28;4210963;28;20070;-66
2021/06/15 02:17:25;;;;;;;1.65;0.82;;;;;;;20.19;43.34;102052.44;4210612;28;20029;-65
2021/06/15 02:19:27;;;;;;;6.55;1.30;;;;;;;19.90;43.70;102056.25;4210741;28;20024;-65
2021/06/15 02:21:31;;;;;;;4.70;1.20;;;;;;;20.35;43.31;102061.81;4211392;28;20020;-66
2021/06/15 02:23:33;;;;;;;3.97;1.23;;;;;;;20.28;43.02;102065.66;4206485;28;20112;-67
2021/06/15 02:25:36;;;;;;;2.25;0.90;;;;;;;20.22;43.04;102069.47;4211875;28;20044;-68
2021/06/15 02:27:36;;;;;;;3.58;1.52;;;;;;;20.22;43.19;102069.47;4205102;28;20032;-67
2021/06/15 02:29:38;;;;;;;2.42;1.15;;;;;;;20.07;43.38;102064.53;4210620;28;20036;-67
2021/06/15 02:31:48;;;;;;;3.08;1.02;;;;;;;19.69;44.08;102074.50;4207165;28;20040;-66
2021/06/15 02:33:51;;;;;;;;;;;;;;;19.83;43.81;102083.31;4209329;28;20030;-64
2021/06/15 02:35:58;;;;;;;3.17;1.05;;;;;;;19.66;44.32;102077.78;4210285;28;20327;-66
2021/06/15 02:38:06;;;;;;;2.58;1.00;;;;;;;20.00;43.61;102065.81;4208592;28;20028;-64
2021/06/15 02:40:07;;;;;;;5.78;1.50;;;;;;;20.10;42.88;102063.19;4209605;28;20931;-63
2021/06/15 02:42:12;;;;;;;3.00;0.85;;;;;;;20.07;43.27;102060.91;4210101;28;20028;-64
2021/06/15 02:44:18;;;;;;;2.92;1.23;;;;;;;19.81;43.78;102071.63;4208973;28;20036;-63
2021/06/15 02:46:20;;;;;;;2.35;0.98;;;;;;;19.94;43.41;102070.44;4210039;28;20028;-64
2021/06/15 02:48:23;;;;;;;3.30;0.80;;;;;;;19.94;43.61;102085.22;4209261;28;20032;-63
2021/06/15 02:50:27;;;;;;;7.28;1.08;;;;;;;19.87;43.70;102081.75;4210664;28;20028;-63
2021/06/15 02:52:35;;;;;;;4.47;1.20;;;;;;;19.45;44.17;102098.88;4209882;28;20026;-63
2021/06/15 02:54:43;;;;;;;3.20;1.10;;;;;;;19.45;44.45;102106.34;4209721;28;20567;-64
2021/06/15 02:56:49;;;;;;;2.58;0.90;;;;;;;19.72;43.90;102110.13;4208274;28;20091;-63
2021/06/15 02:58:50;;;;;;;3.80;1.15;;;;;;;19.55;43.87;102109.28;4210215;28;20036;-63
2021/06/15 03:00:50;;;;;;;3.30;1.00;;;;;;;19.51;43.99;102108.09;4210997;28;20759;-72
2021/06/15 03:02:51;;;;;;;5.63;1.10;;;;;;;19.39;44.01;102111.00;4209601;28;20040;-74
2021/06/15 03:04:52;;;;;;;7.63;1.58;;;;;;;19.47;43.83;102099.44;4208856;28;20056;-72
2021/06/15 03:06:52;;;;;;;4.28;1.13;;;;;;;19.37;44.43;102096.50;4208061;28;20048;-67
2021/06/15 03:08:52;;;;;;;4.93;1.15;;;;;;;19.47;44.14;102090.28;4210414;28;20687;-67
2021/06/15 03:10:53;;;;;;;6.00;1.15;;;;;;;19.67;43.70;102096.16;4210272;28;20086;-67
2021/06/15 03:12:56;;;;;;;4.00;1.00;;;;;;;19.49;43.71;102100.03;4210260;28;20035;-64
2021/06/15 03:15:08;;;;;;;4.13;1.10;;;;;;;19.38;43.95;102101.78;4202358;28;20062;-64
2021/06/15 03:17:10;;;;;;;4.32;1.25;;;;;;;19.46;43.87;102097.75;4209844;28;20036;-64
2021/06/15 03:19:18;;;;;;;5.13;0.80;;;;;;;19.57;43.53;102091.28;4210402;28;20024;-67
2021/06/15 03:21:21;;;;;;;3.22;1.05;;;;;;;19.82;43.07;102091.91;4208790;28;20835;-67
2021/06/15 03:23:40;;;;;;;3.60;0.90;;;;;;;19.42;43.76;102102.16;4210980;28;20063;-67
2021/06/15 03:25:41;;;;;;;2.53;0.90;;;;;;;19.48;43.57;102103.91;4209084;28;20036;-67
2021/06/15 03:27:53;;;;;;;3.47;1.00;;;;;;;19.55;43.56;102104.56;4210564;28;20785;-68
2021/06/15 03:29:53;;;;;;;4.35;0.98;;;;;;;19.24;44.03;102103.22;4206131;28;20635;-68
2021/06/15 03:31:59;;;;;;;2.70;1.10;;;;;;;19.35;44.08;102104.25;4207797;28;20055;-68
2021/06/15 03:34:01;;;;;;;3.30;0.80;;;;;;;19.19;44.32;102100.38;4208945;28;20032;-68
2021/06/15 03:36:04;;;;;;;6.35;1.40;;;;;;;19.34;43.99;102094.22;4207329;28;20024;-67
2021/06/15 03:38:07;;;;;;;4.65;1.23;;;;;;;19.24;43.84;102101.28;4209672;28;20505;-67
2021/06/15 03:40:08;;;;;;;3.53;1.00;;;;;;;19.11;44.42;102109.94;4210154;28;20120;-67
2021/06/15 03:42:10;;;;;;;3.08;1.05;;;;;;;18.95;44.83;102116.25;4209907;28;20043;-67
2021/06/15 03:44:13;;;;;;;3.90;1.30;;;;;;;19.25;43.98;102116.03;4209910;28;20035;-67
2021/06/15 03:46:16;;;;;;;6.18;1.20;;;;;;;19.34;43.67;102110.88;4208885;28;20032;-68
2021/06/15 03:48:19;;;;;;;4.45;1.45;;;;;;;19.39;43.69;102113.75;4207752;28;20150;-68
2021/06/15 03:50:21;;;;;;;5.43;2.00;;;;;;;19.28;43.82;102111.88;4207973;28;20550;-68
2021/06/15 03:52:30;;;;;;;2.88;1.50;;;;;;;19.10;44.25;102108.25;4206708;28;20028;-70
2021/06/15 03:54:32;;;;;;;5.95;1.58;;;;;;;19.20;43.91;102114.00;4208963;28;20039;-71
2021/06/15 03:56:36;;;;;;;3.45;1.10;;;;;;;19.44;43.20;102115.78;4208013;28;20028;-72
2021/06/15 03:58:37;;;;;;;5.18;1.60;;;;;;;19.36;43.16;102112.31;4207492;28;20534;-70
2021/06/15 04:00:44;;;;;;;7.38;1.38;;;;;;;19.32;43.19;102113.06;4210892;28;20370;-70
2021/06/15 04:02:47;;;;;;;5.68;1.40;;;;;;;19.22;43.54;102116.53;4209477;28;20042;-70
2021/06/15 04:04:48;;;;;;;3.58;1.10;;;;;;;19.29;43.22;102108.03;4209642;28;20438;-72
2021/06/15 04:06:51;;;;;;;4.93;1.40;;;;;;;19.22;43.35;102116.53;4209521;28;20038;-73
2021/06/15 04:08:52;;;;;;;4.20;1.58;;;;;;;19.21;43.60;102117.59;4210163;28;20110;-72
2021/06/15 04:10:54;;;;;;;4.90;1.33;;;;;;;19.08;43.50;102118.75;4209431;28;20448;-73
2021/06/15 04:12:55;;;;;;;2.90;1.35;;;;;;;19.31;43.04;102116.94;4206703;28;20116;-72
2021/06/15 04:14:58;;;;;;;9.50;1.33;;;;;;;18.96;43.69;102112.41;4207609;28;20036;-72
2021/06/15 04:16:59;;;;;;;5.40;1.60;;;;;;;19.02;43.57;102116.97;4209693;28;20036;-74
2021/06/15 04:19:04;;;;;;;7.85;1.17;;;;;;;19.24;42.99;102112.38;4208987;28;20028;-72
2021/06/15 04:21:07;;;;;;;4.40;1.20;;;;;;;19.36;42.71;102115.09;4208645;28;20345;-69
2021/06/15 04:23:09;;;;;;;4.60;1.23;;;;;;;18.97;43.69;102130.72;4209412;28;20645;-72
2021/06/15 04:25:11;;;;;;;4.47;1.45;;;;;;;19.13;43.26;102129.97;4206805;28;20029;-70
2021/06/15 04:27:12;;;;;;;5.22;1.48;;;;;;;19.18;43.28;102123.66;4208677;28;20165;-70
2021/06/15 04:29:14;;;;;;;6.18;1.63;;;;;;;19.31;43.03;102128.03;4210155;28;20032;-69
2021/06/15 04:31:17;;;;;;;4.22;1.10;;;;;;;19.29;43.08;102124.69;4209414;28;20035;-68
2021/06/15 04:33:24;;;;;;;3.88;1.27;;;;;;;19.17;43.05;102131.16;4209119;28;20032;-66
2021/06/15 04:35:31;;;;;;;5.10;2.03;;;;;;;19.06;43.53;102130.09;4208226;28;20084;-67
2021/06/15 04:37:33;;;;;;;4.82;1.65;;;;;;;18.94;43.66;102132.09;4206064;28;20024;-65
2021/06/15 04:39:42;;;;;;;4.18;1.52;;;;;;;19.13;43.17;102123.56;4208548;28;20044;-64
2021/06/15 04:41:52;;;;;;;5.05;1.33;;;;;;;18.97;43.62;102131.59;4208233;28;20036;-66
2021/06/15 04:44:01;;;;;;;6.05;1.80;;;;;;;19.12;43.08;102144.91;4208997;28;20047;-70
2021/06/15 04:46:48;;;;;;;6.25;2.10;;;;;;;18.78;43.78;102144.78;4207707;28;20201;-66
2021/06/15 04:49:08;;;;;;;5.95;2.67;;;;;;;18.61;44.38;102143.88;4202786;28;20051;-68
2021/06/15 04:51:10;;;;;;;6.85;1.67;;;;;;;18.73;43.96;102146.63;4209072;28;20099;-66
2021/06/15 04:53:11;;;;;;;5.35;1.67;;;;;;;18.71;44.03;102139.41;4203899;28;20474;-66
2021/06/15 04:55:12;;;;;;;5.18;1.60;;;;;;;19.00;43.46;102135.78;4201110;28;20098;-66
2021/06/15 04:57:17;;;;;;;4.38;1.40;;;;;;;19.03;43.32;102136.13;4207433;28;20036;-69
2021/06/15 04:59:21;;;;;;;5.53;1.75;;;;;;;18.98;43.38;102140.75;4208802;28;20038;-68
2021/06/15 05:01:22;;;;;;;4.32;1.05;;;;;;;19.14;43.19;102137.19;4209251;28;20028;-68
2021/06/15 05:03:22;;;;;;;4.68;1.60;;;;;;;18.94;43.66;102129.31;4208481;28;20078;-69
2021/06/15 05:05:24;;;;;;;6.28;1.65;;;;;;;18.74;44.00;102140.84;4207970;28;20367;-72
2021/06/15 05:07:25;;;;;;;8.18;2.40;;;;;;;18.62;44.31;102134.50;4207927;28;20054;-73
2021/06/15 05:09:28;;;;;;;4.90;2.33;;;;;;;18.74;44.37;102140.84;4209016;28;20653;-73
2021/06/15 05:11:35;;;;;;;5.60;1.77;;;;;;;18.81;44.24;102144.28;4207796;28;20020;-73
2021/06/15 05:13:40;;;;;;;4.50;1.90;;;;;;;19.14;43.33;102139.97;4203000;28;20562;-72
2021/06/15 05:15:42;;;;;;;6.25;1.75;;;;;;;18.97;43.41;102145.47;4206470;28;20161;-74
2021/06/15 05:17:47;;;;;;;4.45;1.48;;;;;;;18.73;43.94;102144.69;4208381;28;20028;-72
2021/06/15 05:19:48;;;;;;;5.32;2.25;;;;;;;18.99;43.44;102170.19;4208309;28;20115;-69
2021/06/15 05:22:07;;;;;;;6.88;2.08;;;;;;;18.77;43.92;102172.78;4209150;28;20546;-69
2021/06/15 05:24:26;;;;;;;2.93;1.40;;;;;;;18.73;43.75;102158.56;4206997;28;20065;-69
2021/06/15 05:26:29;;;;;;;5.95;1.58;;;;;;;18.63;44.20;102167.53;4207743;28;20488;-69
2021/06/15 05:28:29;;;;;;;8.30;2.03;;;;;;;18.64;44.13;102165.59;4206641;28;20564;-62
2021/06/15 05:30:29;;;;;;;7.60;1.95;;;;;;;18.85;43.72;102167.69;4205885;28;20028;-63
2021/06/15 05:32:30;;;;;;;4.20;1.55;;;;;;;18.84;43.47;102176.25;4207886;28;20028;-64
2021/06/15 05:34:31;;;;;;;6.35;1.55;;;;;;;18.75;43.68;102180.50;4206656;28;20052;-68
2021/06/15 05:36:31;;;;;;;6.47;1.70;;;;;;;18.80;43.76;102198.09;4208194;28;20509;-67
2021/06/15 05:38:32;;;;;;;3.85;1.75;;;;;;;18.86;43.55;102188.81;4210254;28;20028;-66
2021/06/15 05:40:32;;;;;;;7.90;2.80;;;;;;;18.88;43.30;102189.38;4212579;28;20028;-70
2021/06/15 05:42:33;;;;;;;6.85;2.05;;;;;;;18.73;43.56;102183.53;4210834;28;20043;-66
2021/06/15 05:44:34;;;;;;;6.68;2.17;;;;;;;18.73;43.56;102191.00;4210285;28;20043;-66
2021/06/15 05:46:34;;;;;;;8.23;2.00;;;;;;;19.03;42.93;102190.78;4211636;28;20034;-67
2021/06/15 05:48:35;;;;;;;6.35;2.80;;;;;;;18.86;43.02;102191.56;4211902;28;20474;-71
2021/06/15 05:50:35;;;;;;;5.15;2.00;;;;;;;18.89;43.23;102199.41;4212267;28;20032;-71
2021/06/15 05:52:36;;;;;;;6.65;1.95;;;;;;;18.84;43.25;102204.00;4213209;28;20036;-72
2021/06/15 05:54:37;;;;;;;6.18;2.47;;;;;;;18.86;43.48;102204.59;4212171;28;20066;-72
2021/06/15 05:56:38;;;;;;;7.80;2.55;;;;;;;18.72;43.53;102198.47;4210676;28;20035;-72
2021/06/15 05:58:38;;;;;;;6.47;2.58;;;;;;;18.91;43.18;102199.16;4212535;28;20032;-71
2021/06/15 06:00:39;;;;;;;7.63;2.33;;;;;;;18.90;43.10;102203.00;4210621;28;20078;-72
2021/06/15 06:02:39;;;;;;;5.13;2.20;;;;;;;18.95;43.07;102205.88;4210717;28;20047;-72
2021/06/15 06:09:13;;;;;;;6.70;2.63;;;;;;;19.13;42.54;102218.78;4210310;28;20615;-72
2021/06/15 06:11:14;;;;;;;6.75;2.05;;;;;;;19.10;42.66;102216.50;4210668;28;20040;-71
2021/06/15 06:13:14;;;;;;;6.38;2.28;;;;;;;19.10;42.88;102213.72;4211311;28;20043;-73
2021/06/15 06:15:16;;;;;;;6.93;1.98;;;;;;;19.03;42.72;102218.53;4211339;28;20039;-71
2021/06/15 06:17:16;;;;;;;5.22;2.35;;;;;;;19.26;42.09;102214.00;4210158;28;20032;-71
2021/06/15 06:19:18;;;;;;;4.75;1.67;;;;;;;19.53;41.64;102225.34;4210327;28;20067;-65
2021/06/15 06:21:19;;;;;;;6.38;1.98;;;;;;;19.60;42.01;102218.56;4209508;28;20470;-65
2021/06/15 06:23:20;;;;;;;7.47;2.15;;;;;;;19.60;41.82;102223.25;4207377;28;20043;-64
2021/06/15 06:25:20;;;;;;;3.95;1.38;;;;;;;19.73;41.46;102222.94;4210093;28;20032;-65
2021/06/15 06:27:21;;;;;;;5.32;1.58;;;;;;;19.78;41.47;102228.56;4210802;28;20093;-72
2021/06/15 06:29:21;;;;;;;5.70;2.03;;;;;;;19.81;41.44;102224.44;4209603;28;20681;-74
2021/06/15 06:31:22;;;;;;;8.70;2.25;;;;;;;19.82;41.47;102223.38;4211195;28;20480;-73
2021/06/15 06:33:23;;;;;;;5.78;2.22;;;;;;;19.79;41.61;102226.66;4209054;28;20478;-71
2021/06/15 06:35:23;;;;;;;5.95;1.77;;;;;;;19.84;41.31;102237.88;4211095;28;20044;-72
2021/06/15 06:37:23;;;;;;;6.00;1.95;;;;;;;19.93;41.23;102228.03;4209241;28;20392;-70
2021/06/15 06:39:24;;;;;;;4.70;2.00;;;;;;;19.81;41.24;102218.91;4208581;28;20117;-72
2021/06/15 06:41:27;;;;;;;5.72;1.70;;;;;;;19.85;41.12;102222.03;4207839;28;20028;-74
2021/06/15 06:43:27;;;;;;;6.68;1.70;;;;;;;20.06;40.69;102223.22;4209887;28;21068;-74
2021/06/15 06:45:28;;;;;;;5.18;1.50;;;;;;;20.12;40.59;102236.94;4208578;28;20032;-69
2021/06/15 06:47:28;;;;;;;8.07;1.90;;;;;;;20.11;40.38;102234.41;4205694;28;20517;-68
2021/06/15 06:49:28;;;;;;;10.02;2.95;;;;;;;20.19;41.08;102239.56;4205254;28;20024;-68
2021/06/15 06:51:29;;;;;;;5.55;1.70;;;;;;;20.04;40.73;102233.75;4208284;28;20035;-67
2021/06/15 06:53:32;;;;;;;7.88;1.83;;;;;;;20.02;40.97;102238.72;4209034;28;20094;-67
2021/06/15 06:55:33;;;;;;;14.00;2.00;;;;;;;20.22;41.01;102250.19;4206141;28;20111;-67
2021/06/15 06:57:33;;;;;;;8.13;2.05;;;;;;;20.16;40.67;102253.09;4209677;28;20125;-70
2021/06/15 06:59:34;;;;;;;5.05;1.88;;;;;;;20.34;40.13;102240.88;4206949;28;20070;-71
2021/06/15 07:01:34;;;;;;;8.10;2.60;;;;;;;20.29;40.92;102236.09;4207950;28;20024;-72
2021/06/15 07:03:34;;;;;;;6.63;1.85;;;;;;;20.40;40.46;102243.47;4212183;28;20529;-70
2021/06/15 07:05:35;;;;;;;6.43;2.15;;;;;;;20.41;40.57;102238.78;4207676;28;20079;-69
2021/06/15 07:07:35;;;;;;;9.30;2.47;;;;;;;20.36;40.54;102247.88;4208587;28;20035;-70
2021/06/15 07:09:36;;;;;;;7.03;1.90;;;;;;;20.41;40.23;102245.16;4194974;28;20028;-70
2021/06/15 07:11:36;;;;;;;5.65;2.10;;;;;;;20.47;40.19;102254.44;4206419;28;20121;-70
2021/06/15 07:13:36;;;;;;;6.22;1.95;;;;;;;20.50;40.34;102251.16;4208633;28;20028;-70
2021/06/15 07:15:37;;;;;;;3.40;1.60;;;;;;;20.56;39.79;102261.25;4208178;28;20081;-73
2021/06/15 07:17:38;;;;;;;4.55;1.40;;;;;;;20.51;40.02;102258.38;4207271;28;20040;-70
2021/06/15 07:19:38;;;;;;;5.65;1.83;;;;;;;20.50;40.19;102251.16;4200175;28;20393;-69
2021/06/15 07:21:39;;;;;;;3.10;1.60;;;;;;;20.49;40.38;102257.78;4203760;28;20537;-70
2021/06/15 07:23:40;;;;;;;8.15;2.10;;;;;;;20.51;40.08;102249.19;4207668;28;20369;-69
2021/06/15 07:25:41;;;;;;;6.68;1.55;;;;;;;20.58;40.22;102255.47;4208440;28;20452;-71
2021/06/15 07:27:42;;;;;;;8.23;1.65;;;;;;;20.51;40.51;102255.59;4207621;28;20629;-70
2021/06/15 07:29:42;;;;;;;5.10;1.33;;;;;;;20.53;40.23;102256.19;4201260;28;20091;-70
2021/06/15 07:31:43;;;;;;;8.95;1.83;;;;;;;20.61;40.20;102250.22;4202696;28;20036;-71
2021/06/15 07:33:43;;;;;;;6.90;1.48;;;;;;;20.63;40.24;102253.56;4206014;28;20039;-67
2021/06/15 07:35:44;;;;;;;7.68;1.65;;;;;;;20.64;40.19;102254.44;4205132;28;20040;-65
2021/06/15 07:37:44;;;;;;;6.07;1.52;;;;;;;20.74;39.50;102264.84;4207903;28;20028;-69
2021/06/15 07:39:45;;;;;;;6.85;1.95;;;;;;;20.81;39.91;102258.00;4207459;28;20460;-65
2021/06/15 07:41:46;;;;;;;7.07;1.73;;;;;;;20.81;39.91;102251.59;4195776;28;20082;-67
2021/06/15 07:43:46;;;;;;;13.18;1.70;;;;;;;20.82;39.81;102253.25;4207218;28;20131;-66
2021/06/15 07:45:47;;;;;;;6.72;1.65;;;;;;;20.84;40.20;102246.34;4206221;28;20105;-68
2021/06/15 07:47:47;;;;;;;11.55;1.40;;;;;;;20.91;39.86;102248.94;4206678;28;20103;-66
2021/06/15 07:49:48;;;;;;;5.63;1.42;;;;;;;20.83;40.43;102255.78;4202562;28;20028;-68
2021/06/15 07:51:49;;;;;;;7.88;1.77;;;;;;;20.88;40.36;102254.19;4198563;28;20040;-67
2021/06/15 07:53:50;;;;;;;5.03;1.60;;;;;;;20.90;39.87;102241.69;4205351;28;20028;-66
2021/06/15 07:55:50;;;;;;;4.15;1.33;;;;;;;20.93;40.00;102246.75;4211146;28;20390;-67
2021/06/15 07:57:51;;;;;;;8.10;1.55;;;;;;;20.99;39.94;102244.84;4205764;28;20028;-63
2021/06/15 07:59:51;;;;;;;5.22;1.33;;;;;;;21.02;39.80;102244.31;4207544;28;20118;-65
2021/06/15 08:01:52;;;;;;;4.25;0.70;;;;;;;21.03;39.51;102235.72;4206407;28;20027;-65
2021/06/15 08:03:52;;;;;;;3.55;1.30;;;;;;;21.03;39.69;102246.03;4205786;28;20399;-69
2021/06/15 08:05:53;;;;;;;4.55;1.92;;;;;;;21.03;40.13;102243.25;4207280;28;20040;-65
2021/06/15 08:07:54;;;;;;;2.83;1.05;;;;;;;21.12;39.68;102236.09;4205263;28;20016;-68
2021/06/15 08:09:55;;;;;;;3.28;1.42;;;;;;;21.14;40.27;102233.91;4205922;28;20083;-66
2021/06/15 08:11:56;;;;;;;4.00;1.48;;;;;;;21.16;40.15;102233.63;4203875;28;20056;-70
2021/06/15 08:13:56;;;;;;;3.20;1.33;;;;;;;21.14;40.02;102222.75;4205385;28;20047;-67
2021/06/15 08:15:57;;;;;;;3.83;1.20;;;;;;;21.14;39.93;102219.97;4204985;28;20444;-67
2021/06/15 08:17:58;;;;;;;3.42;1.02;;;;;;;21.18;39.17;102221.16;4206749;28;20135;-67
2021/06/15 08:19:58;;;;;;;3.40;0.90;;;;;;;21.24;39.80;102218.41;4205514;28;20028;-67
2021/06/15 08:21:59;;;;;;;3.97;1.52;;;;;;;21.26;39.76;102224.56;4204778;28;20390;-67
2021/06/15 08:23:59;;;;;;;3.63;1.30;;;;;;;21.16;40.03;102205.78;4205913;28;20385;-66
2021/06/15 08:25:59;;;;;;;7.95;1.30;;;;;;;21.29;39.11;102221.28;4207330;28;20036;-68
2021/06/15 08:28:00;;;;;;;4.28;1.73;;;;;;;21.30;39.83;102234.97;4220600;28;20024;-68
2021/06/15 08:30:03;;;;;;;3.22;1.52;;;;;;;21.37;39.77;102240.31;4202621;28;20035;-69
2021/06/15 08:32:04;;;;;;;3.35;1.25;;;;;;;21.35;39.80;102237.78;4205229;28;20040;-66
2021/06/15 08:34:04;;;;;;;2.67;1.20;;;;;;;21.36;39.86;102241.41;4200863;28;20201;-68
2021/06/15 08:36:05;;;;;;;5.45;1.52;;;;;;;21.41;39.30;102235.91;4205152;28;20051;-69
2021/06/15 08:38:05;;;;;;;2.42;1.20;;;;;;;21.44;39.47;102245.66;4205053;28;20028;-69
2021/06/15 08:40:07;;;;;;;2.88;1.13;;;;;;;21.37;39.84;102240.31;4197136;28;20575;-67
2021/06/15 08:42:07;;;;;;;2.75;1.13;;;;;;;21.42;39.06;102233.94;4205788;28;20059;-69
2021/06/15 08:44:09;;;;;;;6.03;1.20;;;;;;;21.49;39.27;102248.53;4206686;28;20040;-72
2021/06/15 08:46:11;;;;;;;5.93;1.48;;;;;;;21.51;39.59;102236.00;4204118;28;20020;-68
2021/06/15 08:48:13;;;;;;;3.85;1.10;;;;;;;21.56;38.98;102246.34;4204793;28;20039;-68
2021/06/15 08:50:18;;;;;;;3.97;1.58;;;;;;;21.52;38.81;102248.81;4205892;28;20105;-68
2021/06/15 08:52:25;;;;;;;5.32;1.42;;;;;;;21.52;38.69;102239.63;4197185;28;20035;-68
2021/06/15 08:54:27;;;;;;;5.10;1.23;;;;;;;21.58;38.80;102234.94;4205311;28;20036;-69
2021/06/15 08:56:32;;;;;;;4.65;1.10;;;;;;;21.59;38.55;102226.31;4204521;28;20028;-67
2021/06/15 08:58:49;;;;;;;2.40;1.20;;;;;;;21.63;38.58;102232.22;4203400;28;20027;-68
2021/06/15 09:00:50;;;;;;;4.60;1.17;;;;;;;21.60;38.71;102232.75;4205994;28;20048;-68
2021/06/15 09:02:51;;;;;;;1.77;1.20;;;;;;;21.61;38.80;102235.28;4203062;28;20115;-68
2021/06/15 09:04:51;;;;;;;3.30;1.08;;;;;;;21.61;38.90;102235.28;4205241;28;20047;-68
2021/06/15 09:06:56;;;;;;;2.75;0.98;;;;;;;21.63;38.46;102215.50;4203253;28;20044;-68
2021/06/15 09:08:58;;;;;;;2.60;0.93;;;;;;;21.69;38.33;102220.84;4204872;28;20315;-69
2021/06/15 09:11:05;;;;;;;3.25;1.05;;;;;;;21.72;38.27;102219.50;4206253;28;20088;-68
2021/06/15 09:13:26;;;;;;;4.47;1.00;;;;;;;21.76;38.52;102226.19;4203994;28;20036;-69
2021/06/15 09:15:27;;;;;;;2.08;0.90;;;;;;;21.79;38.21;102224.81;4203943;28;20040;-68
2021/06/15 09:17:28;;;;;;;2.40;1.02;;;;;;;21.77;38.27;102229.84;4207626;28;20032;-68
2021/06/15 09:19:35;;;;;;;2.85;1.05;;;;;;;21.73;38.36;102233.16;4204677;28;20029;-68
2021/06/15 09:21:37;;;;;;;4.93;1.27;;;;;;;21.74;38.34;102229.25;4204707;28;20075;-67
2021/06/15 09:23:38;;;;;;;5.93;1.58;;;;;;;21.78;38.18;102235.16;4203849;28;20047;-67
2021/06/15 09:25:39;;;;;;;3.95;1.52;;;;;;;21.77;38.08;102236.25;4204004;28;20034;-67
2021/06/15 09:27:40;;;;;;;1.77;0.70;;;;;;;21.81;38.47;102229.03;4206062;28;20032;-67
2021/06/15 09:29:53;;;;;;;6.45;1.65;;;;;;;21.86;38.18;102233.81;4206334;28;20028;-68
2021/06/15 09:31:54;;;;;;;3.95;1.30;;;;;;;21.84;38.17;102228.50;4208406;28;20539;-67
2021/06/15 09:33:55;;;;;;;5.97;1.60;;;;;;;21.87;39.02;102224.31;4208307;28;20109;-67
2021/06/15 09:36:04;;;;;;;5.97;1.75;;;;;;;21.92;39.19;102225.22;4206729;28;20526;-70